Terminal Aerodrome Forecast
Issued by NWS La Crosse, WI

Current Version | Previous Version | Text Only | Print | Product List | Glossary On
Versions: 1 2 3 4 5 6 7 8 9 10 11 12 13
000
FTUS43 KARX 060704 AAA
TAFRST
TAF AMD
KRST 060704Z 0607/0706 25011KT P6SM SKC
     FM061400 25011KT P6SM SKC
     FM061700 24014G22KT P6SM SKC
     FM070000 24011KT P6SM SCT100=

USA.gov is the U.S. government's official web portal to all federal, state and local government web resources and services.